createdAt,value
2022-10-17T00:02:21.516Z,83.24
2022-10-17T00:04:50.800Z,84.16
2022-10-17T00:07:20.214Z,83.75
2022-10-17T00:09:49.516Z,83.60
2022-10-17T00:12:18.906Z,83.96
2022-10-17T00:14:48.239Z,84.00
2022-10-17T00:17:19.059Z,83.97
2022-10-17T00:19:48.291Z,83.72
2022-10-17T00:22:18.002Z,84.28
2022-10-17T00:24:47.156Z,84.31
2022-10-17T00:27:16.625Z,84.76
2022-10-17T00:29:49.137Z,83.96
2022-10-17T00:32:21.130Z,84.32
2022-10-17T00:34:50.433Z,83.94
2022-10-17T00:37:20.809Z,83.81
2022-10-17T00:39:50.017Z,84.01
2022-10-17T00:42:19.977Z,83.97
2022-10-17T00:45:18.286Z,83.40
2022-10-17T00:47:54.193Z,84.15
2022-10-17T00:50:23.422Z,83.29
2022-10-17T00:52:53.380Z,84.59
2022-10-17T00:55:29.484Z,84.49
2022-10-17T00:58:01.586Z,84.41
2022-10-17T01:00:30.858Z,85.20
2022-10-17T01:03:02.538Z,84.74
2022-10-17T01:05:32.335Z,84.78
2022-10-17T01:08:02.177Z,84.29
2022-10-17T01:10:36.233Z,84.16
2022-10-17T01:13:14.913Z,84.29
2022-10-17T01:15:57.022Z,83.72
2022-10-17T01:18:40.560Z,83.82
2022-10-17T01:21:35.787Z,83.19
2022-10-17T01:24:58.526Z,83.71
2022-10-17T01:28:03.044Z,83.74
2022-10-17T01:30:57.571Z,83.89
2022-10-17T01:33:40.353Z,84.38
2022-10-17T01:36:14.150Z,84.74
2022-10-17T01:38:48.918Z,83.98
2022-10-17T01:41:28.352Z,84.17
2022-10-17T01:44:01.029Z,84.66
2022-10-17T01:46:37.298Z,84.45
2022-10-17T01:49:09.728Z,85.02
2022-10-17T01:51:43.471Z,84.54
2022-10-17T01:54:17.685Z,84.85
2022-10-17T01:56:49.337Z,84.96
2022-10-17T01:59:24.375Z,84.85
2022-10-17T02:01:57.840Z,84.59
2022-10-17T02:04:27.639Z,84.68
2022-10-17T02:06:57.163Z,85.04
2022-10-17T02:09:28.098Z,85.12
2022-10-17T02:12:34.189Z,84.58
2022-10-17T02:15:43.725Z,83.89
2022-10-17T02:18:31.244Z,84.23
2022-10-17T02:21:08.227Z,84.26
2022-10-17T02:23:53.013Z,83.69
2022-10-17T02:26:27.188Z,83.80
2022-10-17T02:29:07.473Z,84.22
2022-10-17T02:36:37.868Z,83.75
2022-10-17T02:39:10.112Z,83.78
2022-10-17T02:41:41.524Z,84.05
2022-10-17T02:44:11.447Z,84.69
2022-10-17T02:46:45.105Z,84.73
2022-10-17T02:49:20.492Z,84.31
2022-10-17T02:51:59.134Z,84.71
2022-10-17T02:54:37.326Z,84.85
2022-10-17T02:57:13.485Z,84.97
2022-10-17T02:59:45.513Z,85.57
2022-10-17T03:02:15.389Z,85.22
2022-10-17T03:04:45.646Z,84.72
2022-10-17T03:07:16.567Z,85.24
2022-10-17T03:09:46.059Z,85.38
2022-10-17T03:12:15.638Z,85.03
2022-10-17T03:14:44.863Z,85.91
2022-10-17T03:17:14.448Z,85.42
2022-10-17T03:19:43.920Z,85.45
2022-10-17T03:22:13.345Z,86.00
2022-10-17T03:24:46.111Z,85.30
2022-10-17T03:27:15.760Z,85.12
2022-10-17T03:29:46.563Z,85.22
2022-10-17T03:32:18.061Z,84.86
2022-10-17T03:34:47.713Z,85.94
2022-10-17T03:37:17.228Z,85.44
2022-10-17T03:39:48.659Z,85.26
2022-10-17T03:42:18.241Z,85.38
2022-10-17T03:44:47.611Z,85.99
2022-10-17T03:47:17.303Z,85.64
2022-10-17T03:49:47.439Z,85.42
2022-10-17T03:52:17.970Z,85.00
2022-10-17T03:54:49.050Z,86.15
2022-10-17T03:57:18.854Z,85.03
2022-10-17T03:59:48.932Z,85.49
2022-10-17T04:02:22.514Z,85.68
2022-10-17T04:04:52.404Z,84.99
2022-10-17T04:07:21.943Z,84.83
2022-10-17T04:09:52.766Z,86.05
2022-10-17T04:12:24.627Z,86.52
2022-10-17T04:14:53.913Z,87.57
2022-10-17T04:17:23.995Z,87.03
2022-10-17T04:19:53.277Z,85.74
2022-10-17T04:22:22.742Z,86.02
2022-10-17T04:24:53.459Z,85.78
2022-10-17T04:27:49.057Z,86.58
2022-10-17T04:30:18.687Z,86.47
2022-10-17T04:32:48.627Z,86.40
2022-10-17T04:35:23.784Z,86.20
2022-10-17T04:38:00.824Z,86.60
2022-10-17T04:40:31.651Z,87.05
2022-10-17T04:43:01.924Z,87.21
2022-10-17T04:45:37.314Z,86.93
2022-10-17T04:48:08.200Z,86.78
2022-10-17T04:50:37.583Z,86.42
2022-10-17T04:53:29.095Z,86.55
2022-10-17T04:56:00.055Z,87.14
2022-10-17T04:58:30.971Z,86.84
2022-10-17T05:01:00.374Z,87.03
2022-10-17T05:03:31.808Z,86.49
2022-10-17T05:06:04.299Z,86.83
2022-10-17T05:08:33.939Z,87.20
2022-10-17T05:11:05.868Z,86.86
2022-10-17T05:13:35.530Z,87.14
2022-10-17T05:16:04.842Z,87.43
2022-10-17T05:18:34.297Z,87.67
2022-10-17T05:21:05.826Z,87.17
2022-10-17T05:23:35.920Z,87.68
2022-10-17T05:26:06.881Z,87.77
2022-10-17T05:28:37.124Z,87.50
2022-10-17T05:31:08.244Z,87.98
2022-10-17T05:33:39.428Z,87.52
2022-10-17T05:36:09.309Z,87.48
2022-10-17T05:38:39.059Z,87.28
2022-10-17T05:41:11.015Z,87.95
2022-10-17T05:43:41.239Z,88.07
2022-10-17T05:46:11.390Z,87.98
2022-10-17T05:48:41.167Z,87.80
2022-10-17T05:51:11.559Z,88.47
2022-10-17T05:53:43.404Z,87.95
2022-10-17T05:56:20.442Z,87.44
2022-10-17T05:58:54.071Z,88.10
2022-10-17T06:01:50.657Z,88.07
2022-10-17T06:04:20.637Z,87.48
2022-10-17T06:06:50.359Z,87.63
2022-10-17T06:09:19.870Z,87.24
2022-10-17T06:11:53.199Z,87.23
2022-10-17T06:14:23.000Z,86.97
2022-10-17T06:16:56.001Z,87.44
2022-10-17T06:19:25.408Z,87.43
2022-10-17T06:21:54.876Z,86.97
2022-10-17T06:24:25.950Z,87.56
2022-10-17T06:26:57.831Z,87.73
2022-10-17T06:29:27.475Z,87.76
2022-10-17T06:31:57.197Z,88.33
2022-10-17T06:34:27.310Z,87.28
2022-10-17T06:39:34.009Z,88.15
2022-10-17T06:42:31.307Z,89.42
2022-10-17T06:45:29.643Z,87.18
2022-10-17T06:48:11.440Z,87.99
2022-10-17T06:50:54.497Z,87.23
2022-10-17T06:53:29.710Z,87.30
2022-10-17T06:56:28.628Z,86.76
2022-10-17T06:59:11.333Z,86.06
2022-10-17T07:01:46.249Z,86.91
2022-10-17T07:04:17.820Z,86.57
2022-10-17T07:06:47.539Z,87.54
2022-10-17T07:09:24.333Z,87.30
2022-10-17T07:11:53.749Z,86.08
2022-10-17T07:14:31.810Z,86.27
2022-10-17T07:17:01.724Z,85.52
2022-10-17T07:19:33.959Z,85.86
2022-10-17T07:22:03.445Z,86.82
2022-10-17T07:24:34.039Z,85.90
2022-10-17T07:27:16.441Z,86.75
2022-10-17T07:29:47.175Z,85.29
2022-10-17T07:32:24.043Z,84.96
2022-10-17T07:34:54.233Z,85.64
2022-10-17T07:37:23.619Z,87.16
2022-10-17T07:39:57.508Z,86.79
2022-10-17T07:42:27.983Z,84.44
2022-10-17T07:44:58.755Z,83.15
2022-10-17T07:47:31.519Z,82.84
2022-10-17T07:50:02.023Z,85.40
2022-10-17T07:52:31.847Z,84.27
2022-10-17T07:55:01.335Z,83.33
2022-10-17T07:57:30.834Z,82.38
2022-10-17T08:00:01.517Z,82.74
2022-10-17T08:02:31.397Z,80.06
2022-10-17T08:05:01.033Z,78.67
2022-10-17T08:07:31.510Z,79.67
2022-10-17T08:10:00.814Z,78.41
2022-10-17T08:12:32.847Z,80.38
2022-10-17T08:15:04.121Z,80.08
2022-10-17T08:17:35.254Z,80.01
2022-10-17T08:20:05.198Z,78.88
2022-10-17T08:22:34.998Z,78.40
2022-10-17T08:25:04.194Z,77.24
2022-10-17T08:27:34.750Z,76.25
2022-10-17T08:30:05.646Z,76.51
2022-10-17T08:32:35.018Z,77.58
2022-10-17T08:35:04.363Z,77.55
2022-10-17T08:37:34.140Z,76.67
2022-10-17T08:40:03.577Z,76.53
2022-10-17T08:42:47.349Z,75.32
2022-10-17T08:45:25.650Z,74.82
2022-10-17T08:47:59.737Z,75.06
2022-10-17T08:50:36.831Z,74.58
2022-10-17T08:53:14.776Z,75.11
2022-10-17T08:55:47.733Z,74.92
2022-10-17T08:58:21.337Z,75.29
2022-10-17T09:01:00.124Z,73.56
2022-10-17T09:03:49.261Z,73.10
2022-10-17T09:06:29.804Z,72.84
2022-10-17T09:09:13.248Z,73.79
2022-10-17T09:11:52.774Z,71.71
2022-10-17T09:14:46.764Z,70.11
2022-10-17T09:17:31.884Z,67.87
2022-10-17T09:20:05.731Z,70.07
2022-10-17T09:22:40.013Z,71.15
2022-10-17T09:25:15.163Z,71.93
2022-10-17T09:27:47.586Z,70.38
2022-10-17T09:30:44.592Z,69.51
2022-10-17T09:33:34.369Z,65.74
2022-10-17T09:36:06.098Z,65.01
2022-10-17T09:38:41.569Z,64.51
2022-10-17T09:41:43.603Z,65.75
2022-10-17T09:44:17.813Z,65.94
2022-10-17T09:47:04.137Z,64.75
2022-10-17T09:49:37.172Z,59.73
2022-10-17T09:52:10.293Z,62.46
2022-10-17T09:54:45.438Z,61.78
2022-10-17T09:57:16.225Z,60.30
2022-10-17T09:59:47.017Z,63.95
2022-10-17T10:02:24.505Z,64.48
2022-10-17T10:05:05.937Z,63.90
2022-10-17T10:07:38.624Z,64.70
2022-10-17T10:10:27.645Z,63.18
2022-10-17T10:13:08.809Z,62.91
2022-10-17T10:15:41.284Z,62.62
2022-10-17T10:18:32.692Z,59.62
2022-10-17T10:21:10.296Z,59.83
2022-10-17T10:23:41.370Z,51.99
2022-10-17T10:26:25.824Z,55.53
2022-10-17T10:29:02.109Z,49.68
2022-10-17T10:31:34.933Z,49.42
2022-10-17T10:34:19.382Z,48.57
2022-10-17T10:37:00.715Z,45.65
2022-10-17T10:39:46.015Z,37.84
2022-10-17T10:42:26.346Z,38.10
2022-10-17T10:45:00.310Z,40.10
2022-10-17T10:47:31.865Z,44.31
2022-10-17T10:50:25.471Z,42.27
2022-10-17T10:53:06.567Z,46.26
2022-10-17T10:55:42.235Z,46.47
2022-10-17T10:58:38.935Z,40.31
2022-10-17T11:01:18.726Z,39.51
2022-10-17T11:04:16.527Z,43.95
2022-10-17T11:06:47.403Z,46.11
2022-10-17T11:09:31.321Z,49.93
2022-10-17T11:12:08.180Z,52.60
2022-10-17T11:14:44.584Z,55.59
2022-10-17T11:17:23.585Z,55.32
2022-10-17T11:20:04.235Z,56.50
2022-10-17T11:22:38.020Z,55.62
2022-10-17T11:25:30.299Z,48.92
2022-10-17T11:28:04.662Z,45.52
2022-10-17T11:33:21.416Z,44.71
2022-10-17T11:35:53.531Z,43.75
2022-10-17T11:38:28.406Z,39.96
2022-10-17T11:41:01.399Z,39.01
2022-10-17T11:43:35.435Z,39.43
2022-10-17T11:46:07.733Z,32.65
2022-10-17T11:48:42.207Z,31.83
2022-10-17T11:54:11.259Z,33.66
2022-10-17T11:56:45.966Z,34.38
2022-10-17T11:59:47.347Z,34.43
2022-10-17T12:02:24.651Z,32.18
2022-10-17T12:05:01.894Z,35.13
2022-10-17T12:07:39.530Z,32.26
2022-10-17T12:10:26.240Z,32.19
2022-10-17T12:12:56.994Z,35.99
2022-10-17T12:15:32.156Z,41.01
2022-10-17T12:18:03.134Z,41.41
2022-10-17T12:20:37.587Z,39.12
2022-10-17T12:23:27.810Z,42.43
2022-10-17T12:26:04.043Z,45.82
2022-10-17T12:28:43.305Z,46.15
2022-10-17T12:31:29.731Z,39.70
2022-10-17T12:34:04.423Z,37.63
2022-10-17T12:36:42.748Z,36.34
2022-10-17T12:39:51.590Z,34.01
2022-10-17T12:42:51.407Z,33.78
2022-10-17T12:45:51.622Z,35.45
2022-10-17T12:49:09.030Z,30.96
2022-10-17T12:52:11.283Z,30.24
2022-10-17T12:54:53.547Z,31.84
2022-10-17T12:57:35.002Z,33.20
2022-10-17T13:00:15.763Z,39.63
2022-10-17T13:02:47.427Z,40.07
2022-10-17T13:05:23.512Z,43.76
2022-10-17T13:07:54.924Z,44.00
2022-10-17T13:13:09.734Z,50.22
2022-10-17T13:15:39.969Z,50.23
2022-10-17T13:18:21.165Z,49.10
2022-10-17T13:20:59.395Z,44.83
2022-10-17T13:23:32.445Z,41.79
2022-10-17T13:26:15.336Z,40.77
2022-10-17T13:28:45.000Z,40.01
2022-10-17T13:31:31.979Z,40.84
2022-10-17T13:34:04.546Z,40.72
2022-10-17T13:36:35.858Z,44.69
2022-10-17T13:39:12.496Z,47.49
2022-10-17T13:41:44.401Z,49.62
2022-10-17T13:44:17.006Z,46.74
2022-10-17T13:46:47.115Z,45.62
2022-10-17T13:49:25.926Z,44.55
2022-10-17T13:51:59.696Z,45.48
2022-10-17T13:54:37.200Z,44.21
2022-10-17T13:57:17.880Z,43.27
2022-10-17T13:59:49.326Z,43.94
2022-10-17T14:02:21.237Z,44.67
2022-10-17T14:05:16.730Z,45.12
2022-10-17T14:08:10.566Z,46.62
2022-10-17T14:10:41.759Z,47.78
2022-10-17T14:13:22.264Z,48.61
2022-10-17T14:15:52.498Z,51.58
2022-10-17T14:18:25.710Z,50.23
2022-10-17T14:21:34.003Z,52.46
2022-10-17T14:23:46.789Z,53.81
2022-10-17T14:26:19.861Z,53.35
2022-10-17T14:28:52.290Z,54.08
2022-10-17T14:31:30.530Z,53.76
2022-10-17T14:34:01.252Z,55.64
2022-10-17T14:36:38.317Z,54.83
2022-10-17T14:39:18.782Z,55.23
2022-10-17T14:41:48.501Z,56.96
2022-10-17T14:44:22.825Z,56.76
2022-10-17T14:46:57.822Z,58.08
2022-10-17T14:49:33.716Z,57.82
2022-10-17T14:52:25.493Z,60.50
2022-10-17T14:54:55.614Z,62.09
2022-10-17T14:57:29.139Z,62.08
2022-10-17T14:59:59.109Z,62.64
2022-10-17T15:02:30.975Z,61.83
2022-10-17T15:05:00.847Z,62.18
2022-10-17T15:07:31.566Z,61.38
2022-10-17T15:10:00.954Z,62.34
2022-10-17T15:12:31.705Z,63.23
2022-10-17T15:15:01.327Z,63.87
2022-10-17T15:17:32.279Z,64.13
2022-10-17T15:20:01.852Z,64.77
2022-10-17T15:22:36.542Z,66.64
2022-10-17T15:25:06.619Z,66.98
2022-10-17T15:27:36.323Z,69.53
2022-10-17T15:30:07.714Z,69.08
2022-10-17T15:32:36.987Z,69.84
2022-10-17T15:35:06.998Z,69.69
2022-10-17T15:37:40.472Z,71.11
2022-10-17T15:40:15.465Z,69.72
2022-10-17T15:42:45.024Z,70.43
2022-10-17T15:45:18.516Z,71.42
2022-10-17T15:47:52.728Z,71.33
2022-10-17T15:50:22.988Z,73.93
2022-10-17T15:52:53.713Z,74.13
2022-10-17T15:55:23.618Z,75.12
2022-10-17T15:57:53.101Z,75.02
2022-10-17T16:00:25.650Z,74.27
2022-10-17T16:02:54.892Z,75.68
2022-10-17T16:05:26.269Z,75.71
2022-10-17T16:07:57.978Z,74.95
2022-10-17T16:10:27.699Z,77.24
2022-10-17T16:12:57.229Z,74.93
2022-10-17T16:15:29.166Z,75.41
2022-10-17T16:18:01.729Z,78.98
2022-10-17T16:20:33.464Z,76.86
2022-10-17T16:23:04.875Z,78.59
2022-10-17T16:25:34.509Z,77.77
2022-10-17T16:28:04.354Z,78.15
2022-10-17T16:30:34.382Z,77.88
2022-10-17T16:33:03.887Z,77.55
2022-10-17T16:35:36.775Z,78.31
2022-10-17T16:38:09.034Z,78.65
2022-10-17T16:40:40.739Z,76.97
2022-10-17T16:43:12.056Z,80.25
2022-10-17T16:45:42.372Z,79.30
2022-10-17T16:48:12.391Z,80.21
2022-10-17T16:50:42.611Z,80.89
2022-10-17T16:53:13.310Z,80.59
2022-10-17T16:55:42.878Z,79.95
2022-10-17T16:58:12.147Z,80.58
2022-10-17T17:00:41.781Z,81.53
2022-10-17T17:03:10.987Z,80.29
2022-10-17T17:05:40.413Z,80.23
2022-10-17T17:08:12.474Z,80.50
2022-10-17T17:10:47.477Z,81.87
2022-10-17T17:13:16.996Z,82.30
2022-10-17T17:15:46.904Z,82.50
2022-10-17T17:18:16.258Z,82.88
2022-10-17T17:20:45.731Z,82.50
2022-10-17T17:23:16.008Z,82.56
2022-10-17T17:25:47.042Z,83.08
2022-10-17T17:28:16.470Z,82.47
2022-10-17T17:30:45.877Z,82.39
2022-10-17T17:33:15.151Z,83.65
2022-10-17T17:35:44.589Z,83.23
2022-10-17T17:38:13.908Z,82.15
2022-10-17T17:40:50.757Z,82.77
2022-10-17T17:43:21.149Z,82.43
2022-10-17T17:45:50.582Z,81.48
2022-10-17T17:48:20.398Z,80.97
2022-10-17T17:50:50.346Z,80.87
2022-10-17T17:53:19.926Z,80.69
2022-10-17T17:56:01.413Z,79.42
2022-10-17T17:58:30.583Z,78.95
2022-10-17T18:01:00.133Z,78.61
2022-10-17T18:03:29.757Z,78.03
2022-10-17T18:05:59.157Z,78.66
2022-10-17T18:08:28.491Z,77.71
2022-10-17T18:10:59.324Z,78.47
2022-10-17T18:13:28.805Z,77.86
2022-10-17T18:15:59.188Z,78.56
2022-10-17T18:18:30.511Z,77.64
2022-10-17T18:21:03.186Z,76.38
2022-10-17T18:23:32.474Z,76.42
2022-10-17T18:26:03.340Z,77.03
2022-10-17T18:28:35.354Z,77.82
2022-10-17T18:31:09.215Z,77.48
2022-10-17T18:33:39.295Z,77.20
2022-10-17T18:36:11.678Z,78.08
2022-10-17T18:38:40.998Z,77.54
2022-10-17T18:41:13.851Z,77.25
2022-10-17T18:43:47.391Z,77.75
2022-10-17T18:46:19.877Z,77.28
2022-10-17T18:48:50.849Z,77.54
2022-10-17T18:51:22.224Z,77.30
2022-10-17T18:53:53.444Z,77.51
2022-10-17T18:56:25.027Z,76.73
2022-10-17T18:58:54.759Z,76.74
2022-10-17T19:01:25.988Z,75.66
2022-10-17T19:03:57.723Z,76.27
2022-10-17T19:06:30.150Z,76.23
2022-10-17T19:09:00.976Z,76.15
2022-10-17T19:11:33.332Z,75.77
2022-10-17T19:14:04.396Z,75.69
2022-10-17T19:16:36.212Z,75.52
2022-10-17T19:19:08.585Z,74.94
2022-10-17T19:21:38.300Z,75.16
2022-10-17T19:24:13.158Z,75.08
2022-10-17T19:26:44.783Z,74.18
2022-10-17T19:29:16.320Z,74.94
2022-10-17T19:31:48.528Z,74.18
2022-10-17T19:34:19.230Z,74.40
2022-10-17T19:36:48.717Z,73.34
2022-10-17T19:39:20.177Z,73.87
2022-10-17T19:41:51.179Z,73.26
2022-10-17T19:44:20.622Z,72.40
2022-10-17T19:46:53.045Z,73.08
2022-10-17T19:49:22.430Z,72.85
2022-10-17T19:51:51.935Z,72.25
2022-10-17T19:54:21.927Z,72.40
2022-10-17T19:56:55.319Z,72.10
2022-10-17T19:59:26.248Z,71.60
2022-10-17T20:01:55.816Z,71.98
2022-10-17T20:04:25.270Z,71.17
2022-10-17T20:06:59.777Z,72.24
2022-10-17T20:09:29.434Z,71.45
2022-10-17T20:12:00.240Z,71.11
2022-10-17T20:14:29.526Z,71.22
2022-10-17T20:16:59.043Z,70.66
2022-10-17T20:19:28.262Z,70.71
2022-10-17T20:21:57.788Z,70.88
2022-10-17T20:24:27.063Z,70.15
2022-10-17T20:26:56.531Z,70.52
2022-10-17T20:29:28.314Z,70.21
2022-10-17T20:31:57.849Z,69.82
2022-10-17T20:34:27.095Z,69.39
2022-10-17T20:36:56.758Z,69.61
2022-10-17T20:39:30.041Z,69.42
2022-10-17T20:41:59.480Z,69.40
2022-10-17T20:44:30.360Z,69.13
2022-10-17T20:47:02.538Z,69.22
2022-10-17T20:49:33.459Z,69.54
2022-10-17T20:52:03.140Z,69.13
2022-10-17T20:54:34.958Z,69.23
2022-10-17T20:57:05.219Z,70.15
2022-10-17T20:59:36.160Z,69.38
2022-10-17T21:02:06.750Z,69.43
2022-10-17T21:04:51.477Z,69.63
2022-10-17T21:07:22.252Z,69.74
2022-10-17T21:09:51.534Z,69.73
2022-10-17T21:12:31.047Z,69.58
2022-10-17T21:15:12.433Z,69.64
2022-10-17T21:17:42.449Z,69.39
2022-10-17T21:20:13.112Z,70.57
2022-10-17T21:22:42.775Z,69.84
2022-10-17T21:25:12.006Z,70.46
2022-10-17T21:27:41.481Z,70.17
2022-10-17T21:30:13.173Z,70.05
2022-10-17T21:32:52.022Z,70.02
2022-10-17T21:35:21.621Z,70.63
2022-10-17T21:37:51.455Z,70.47
2022-10-17T21:40:20.745Z,70.25
2022-10-17T21:42:50.184Z,70.75
2022-10-17T21:45:25.978Z,71.23
2022-10-17T21:48:12.227Z,70.51
2022-10-17T21:50:42.322Z,71.37
2022-10-17T21:53:11.703Z,71.61
2022-10-17T21:55:40.867Z,71.31
2022-10-17T21:58:10.287Z,71.51
2022-10-17T22:00:40.858Z,71.00
2022-10-17T22:03:12.775Z,71.39
2022-10-17T22:05:42.052Z,71.08
2022-10-17T22:08:11.678Z,71.77
2022-10-17T22:10:41.208Z,72.21
2022-10-17T22:13:10.573Z,71.39
2022-10-17T22:15:41.128Z,71.47
2022-10-17T22:18:10.461Z,72.11
2022-10-17T22:20:39.725Z,71.79
2022-10-17T22:23:09.107Z,71.63
2022-10-17T22:25:38.162Z,71.73
2022-10-17T22:28:07.519Z,71.42
2022-10-17T22:30:36.601Z,71.94
2022-10-17T22:33:07.333Z,72.67
2022-10-17T22:35:36.521Z,73.14
2022-10-17T22:38:05.753Z,72.85
2022-10-17T22:40:35.074Z,72.19
2022-10-17T22:43:04.947Z,71.53
2022-10-17T22:45:34.012Z,71.07
2022-10-17T22:48:03.356Z,71.48
2022-10-17T22:50:33.895Z,71.97
2022-10-17T22:53:03.278Z,71.50
2022-10-17T22:55:32.456Z,71.35
2022-10-17T22:58:01.759Z,70.95
2022-10-17T23:00:30.950Z,71.30
2022-10-17T23:03:00.426Z,71.02
2022-10-17T23:05:29.574Z,70.94
2022-10-17T23:08:00.287Z,71.07
2022-10-17T23:10:29.388Z,70.83
2022-10-17T23:12:58.694Z,71.25
2022-10-17T23:15:28.017Z,71.42
2022-10-17T23:17:57.265Z,71.00
2022-10-17T23:20:26.554Z,71.03
2022-10-17T23:22:55.861Z,71.28
2022-10-17T23:25:26.913Z,71.09
2022-10-17T23:27:56.162Z,71.74
2022-10-17T23:30:25.421Z,71.87
2022-10-17T23:32:55.411Z,71.83
2022-10-17T23:35:24.516Z,72.00
2022-10-17T23:37:53.805Z,71.68
2022-10-17T23:40:23.030Z,72.27
2022-10-17T23:42:53.822Z,72.28
2022-10-17T23:45:22.969Z,73.23
2022-10-17T23:47:52.383Z,72.61
2022-10-17T23:50:21.426Z,72.95
2022-10-17T23:52:50.661Z,73.57
2022-10-17T23:55:19.915Z,74.21
2022-10-17T23:57:49.386Z,74.37
